Time;durP1;ratioP1;P1;durP2;ratioP2;P2;SDS_P1;SDS_P2;PMS_P1;PMS_P2;Temp;Humidity;BMP_temperature;BMP_pressure;BME280_temperature;BME280_humidity;BME280_pressure;Samples;Min_cycle;Max_cycle;Signal;HPM_P1;HPM_P2
2022/05/16 00:00:39;;;;;;;;;41.50;33.00;;;;;;;;4997215;28;8769;-65
2022/05/16 00:03:06;;;;;;;;;50.75;40.25;;;;;;;;4998333;28;8785;-65
2022/05/16 00:05:33;;;;;;;;;49.25;39.50;;;;;;;;4998183;28;8797;-65
2022/05/16 00:08:01;;;;;;;;;50.25;38.75;;;;;;;;4998381;28;8812;-65
2022/05/16 00:10:28;;;;;;;;;38.25;32.00;;;;;;;;5004252;28;8783;-64
2022/05/16 00:12:54;;;;;;;;;44.75;33.50;;;;;;;;5018003;28;8727;-65
2022/05/16 00:15:21;;;;;;;;;39.00;31.75;;;;;;;;5034148;28;8838;-64
2022/05/16 00:17:48;;;;;;;;;37.00;31.25;;;;;;;;5021437;28;8893;-65
2022/05/16 00:20:15;;;;;;;;;41.00;33.00;;;;;;;;5020726;28;8775;-65
2022/05/16 00:22:42;;;;;;;;;41.75;34.25;;;;;;;;5020523;28;8829;-65
2022/05/16 00:25:09;;;;;;;;;38.50;32.50;;;;;;;;5015826;28;8762;-65
2022/05/16 00:27:36;;;;;;;;;41.75;33.00;;;;;;;;5016245;28;8904;-65
2022/05/16 00:30:06;;;;;;;;;44.25;32.50;;;;;;;;5001036;28;8908;-65
2022/05/16 00:32:33;;;;;;;;;43.00;34.50;;;;;;;;5001338;28;8830;-65
2022/05/16 00:35:00;;;;;;;;;36.75;31.25;;;;;;;;5015727;28;9353;-65
2022/05/16 00:37:26;;;;;;;;;37.50;32.75;;;;;;;;5015658;28;8761;-64
2022/05/16 00:39:53;;;;;;;;;36.50;31.50;;;;;;;;5003685;28;8751;-65
2022/05/16 00:42:20;;;;;;;;;38.75;32.50;;;;;;;;5020072;28;8824;-64
2022/05/16 00:44:47;;;;;;;;;28.75;27.00;;;;;;;;5020071;28;8771;-64
2022/05/16 00:47:13;;;;;;;;;35.50;29.25;;;;;;;;5024012;28;8813;-64
2022/05/16 00:49:42;;;;;;;;;32.25;29.50;;;;;;;;5018803;28;8759;-65
2022/05/16 00:52:28;;;;;;;;;29.50;28.25;;;;;;;;5018487;28;8743;-64
2022/05/16 00:54:56;;;;;;;;;35.00;29.25;;;;;;;;5015979;28;8758;-64
2022/05/16 00:57:32;;;;;;;;;40.50;32.25;;;;;;;;4998902;28;8777;-63
2022/05/16 01:00:11;;;;;;;;;30.50;24.25;;;;;;;;4998895;28;8762;-63
2022/05/16 01:05:24;;;;;;;;;30.25;25.75;;;;;;;;4991198;28;8913;-64
2022/05/16 01:07:50;;;;;;;;;44.25;32.50;;;;;;;;5005303;28;8990;-64
2022/05/16 01:10:18;;;;;;;;;34.25;30.50;;;;;;;;5005490;28;9372;-63
2022/05/16 01:12:47;;;;;;;;;36.75;32.75;;;;;;;;5018683;28;8739;-64
2022/05/16 01:15:14;;;;;;;;;43.75;35.00;;;;;;;;5018711;28;8794;-64
2022/05/16 01:17:41;;;;;;;;;48.50;38.25;;;;;;;;5018379;28;8767;-64
2022/05/16 01:20:09;;;;;;;;;44.25;35.50;;;;;;;;5018886;28;8774;-64
2022/05/16 01:22:46;;;;;;;;;39.50;32.25;;;;;;;;5018686;28;8733;-64
2022/05/16 01:25:14;;;;;;;;;32.50;30.75;;;;;;;;5013383;28;8773;-64
2022/05/16 01:27:48;;;;;;;;;31.75;26.25;;;;;;;;4996945;28;8765;-64
2022/05/16 01:30:15;;;;;;;;;28.75;25.00;;;;;;;;4999616;28;8753;-64
2022/05/16 01:32:41;;;;;;;;;26.00;24.00;;;;;;;;5014177;28;8785;-65
2022/05/16 01:35:08;;;;;;;;;30.00;28.50;;;;;;;;4998725;28;8798;-65
2022/05/16 01:40:20;;;;;;;;;35.50;31.25;;;;;;;;5005771;28;8763;-64
2022/05/16 01:42:47;;;;;;;;;29.00;28.25;;;;;;;;5032156;28;8747;-64
2022/05/16 01:45:14;;;;;;;;;22.75;21.50;;;;;;;;5016262;28;8754;-63
2022/05/16 01:47:41;;;;;;;;;27.50;26.50;;;;;;;;5017959;28;8876;-64
2022/05/16 01:50:08;;;;;;;;;27.75;22.25;;;;;;;;5017919;28;8775;-64
2022/05/16 01:52:35;;;;;;;;;31.25;25.75;;;;;;;;5017539;28;8836;-64
2022/05/16 01:55:01;;;;;;;;;20.60;19.20;;;;;;;;5013745;28;8745;-64
2022/05/16 01:57:28;;;;;;;;;19.00;18.75;;;;;;;;4997310;28;8760;-65
2022/05/16 01:59:55;;;;;;;;;11.75;9.75;;;;;;;;4996896;28;8765;-65
2022/05/16 02:02:22;;;;;;;;;25.00;23.00;;;;;;;;4997592;28;9453;-64
2022/05/16 02:04:48;;;;;;;;;26.00;23.25;;;;;;;;4997017;28;8784;-66
2022/05/16 02:07:15;;;;;;;;;21.00;21.00;;;;;;;;4999027;28;8738;-65
2022/05/16 02:09:42;;;;;;;;;20.80;16.80;;;;;;;;4998415;28;8818;-77
2022/05/16 02:12:09;;;;;;;;;18.40;17.60;;;;;;;;5016954;28;8739;-66
2022/05/16 02:14:36;;;;;;;;;17.40;13.60;;;;;;;;5032538;28;8759;-69
2022/05/16 02:17:03;;;;;;;;;20.20;19.80;;;;;;;;5017112;28;8754;-64
2022/05/16 02:19:30;;;;;;;;;19.80;19.20;;;;;;;;5016919;28;8778;-64
2022/05/16 02:24:42;;;;;;;;;23.20;19.60;;;;;;;;5015670;28;8861;-65
2022/05/16 02:27:13;;;;;;;;;29.75;25.25;;;;;;;;4996030;28;8753;-65
2022/05/16 02:29:40;;;;;;;;;18.75;17.00;;;;;;;;4996939;28;8792;-65
2022/05/16 02:32:06;;;;;;;;;21.00;18.40;;;;;;;;4996625;28;8773;-65
2022/05/16 02:34:33;;;;;;;;;18.75;18.75;;;;;;;;4998067;28;8750;-64
2022/05/16 02:37:00;;;;;;;;;22.50;19.50;;;;;;;;5012379;28;8745;-64
2022/05/16 02:39:27;;;;;;;;;20.80;19.60;;;;;;;;4997334;28;8769;-64
2022/05/16 02:41:54;;;;;;;;;15.80;15.80;;;;;;;;5016293;28;8798;-64
2022/05/16 02:44:21;;;;;;;;;19.60;17.20;;;;;;;;5017085;28;8739;-65
2022/05/16 02:46:48;;;;;;;;;17.80;17.80;;;;;;;;5016348;28;8880;-65
2022/05/16 02:49:14;;;;;;;;;24.75;20.50;;;;;;;;5017401;28;8723;-65
2022/05/16 02:51:41;;;;;;;;;22.20;19.80;;;;;;;;5016941;28;9434;-64
2022/05/16 02:54:08;;;;;;;;;25.40;19.80;;;;;;;;5016920;28;8758;-65
2022/05/16 02:56:34;;;;;;;;;18.20;16.40;;;;;;;;4999669;28;8791;-62
2022/05/16 02:59:01;;;;;;;;;19.40;17.40;;;;;;;;4995541;28;8855;-62
2022/05/16 03:01:29;;;;;;;;;21.50;19.00;;;;;;;;4996396;28;9462;-65
2022/05/16 03:03:55;;;;;;;;;27.25;20.50;;;;;;;;4997496;28;9434;-66
2022/05/16 03:06:22;;;;;;;;;22.00;20.00;;;;;;;;4996048;28;8839;-64
2022/05/16 03:08:49;;;;;;;;;20.00;16.25;;;;;;;;4996429;28;8800;-65
2022/05/16 03:11:15;;;;;;;;;19.00;18.75;;;;;;;;5010374;28;8791;-64
2022/05/16 03:13:42;;;;;;;;;18.25;16.50;;;;;;;;5015365;28;8870;-65
2022/05/16 03:16:09;;;;;;;;;19.00;18.60;;;;;;;;4998900;28;8755;-70
2022/05/16 03:18:36;;;;;;;;;14.25;14.25;;;;;;;;5035307;28;8899;-69
2022/05/16 03:21:02;;;;;;;;;23.25;20.00;;;;;;;;5036179;28;8838;-65
2022/05/16 03:23:29;;;;;;;;;23.25;19.00;;;;;;;;5035681;28;8785;-65
2022/05/16 03:25:56;;;;;;;;;19.25;18.00;;;;;;;;5035587;28;8765;-66
2022/05/16 03:28:23;;;;;;;;;23.60;19.80;;;;;;;;5018441;28;8758;-65
2022/05/16 03:30:49;;;;;;;;;24.40;17.00;;;;;;;;5035948;28;8745;-65
2022/05/16 03:33:16;;;;;;;;;21.75;19.00;;;;;;;;5035338;28;8967;-69
2022/05/16 03:35:43;;;;;;;;;21.75;20.00;;;;;;;;5034445;28;9686;-68
2022/05/16 03:40:41;;;;;;;;;21.50;17.75;;;;;;;;5035360;28;8786;-68
2022/05/16 03:40:57;;;;;;;;;22.00;18.00;;;;;;;;5035864;28;8753;-69
2022/05/16 03:43:24;;;;;;;;;26.20;18.00;;;;;;;;5024453;28;8801;-65
2022/05/16 03:45:51;;;;;;;;;21.40;19.60;;;;;;;;5036273;28;8797;-65
2022/05/16 03:48:17;;;;;;;;;16.80;14.40;;;;;;;;5035849;28;8788;-63
2022/05/16 03:50:44;;;;;;;;;18.60;17.60;;;;;;;;5038517;28;8797;-65
2022/05/16 03:53:11;;;;;;;;;21.20;21.00;;;;;;;;5022975;28;8761;-64
2022/05/16 03:55:39;;;;;;;;;19.00;19.00;;;;;;;;5029612;28;8777;-64
2022/05/16 03:58:06;;;;;;;;;22.40;17.40;;;;;;;;5022961;28;8883;-64
2022/05/16 04:00:33;;;;;;;;;23.00;20.25;;;;;;;;5029885;28;8757;-65
2022/05/16 04:03:00;;;;;;;;;23.50;20.75;;;;;;;;5038874;28;8770;-65
2022/05/16 04:05:26;;;;;;;;;11.60;11.60;;;;;;;;5039673;28;8831;-64
2022/05/16 04:07:53;;;;;;;;;20.00;18.25;;;;;;;;5039666;28;8753;-64
2022/05/16 04:10:20;;;;;;;;;25.75;20.00;;;;;;;;5040238;28;8747;-63
2022/05/16 04:12:47;;;;;;;;;20.50;17.25;;;;;;;;5040045;28;8746;-64
2022/05/16 04:15:17;;;;;;;;;18.50;18.25;;;;;;;;5038777;28;8772;-64
2022/05/16 04:17:43;;;;;;;;;20.00;17.75;;;;;;;;5040384;28;8778;-64
2022/05/16 04:20:11;;;;;;;;;18.25;16.25;;;;;;;;5039874;28;8793;-64
2022/05/16 04:22:38;;;;;;;;;20.00;17.50;;;;;;;;5039001;28;8785;-63
2022/05/16 04:25:05;;;;;;;;;19.80;18.80;;;;;;;;5021903;28;8783;-64
2022/05/16 04:27:32;;;;;;;;;23.25;18.25;;;;;;;;5038412;28;8749;-64
2022/05/16 04:29:58;;;;;;;;;17.00;17.00;;;;;;;;5005123;28;8746;-64
2022/05/16 04:32:25;;;;;;;;;16.25;12.00;;;;;;;;5020862;28;8811;-65
2022/05/16 04:34:52;;;;;;;;;17.80;15.00;;;;;;;;5039070;28;8765;-66
2022/05/16 04:37:19;;;;;;;;;15.00;14.75;;;;;;;;5039716;28;8773;-65
2022/05/16 04:39:46;;;;;;;;;17.20;12.80;;;;;;;;5021825;28;8769;-66
2022/05/16 04:44:57;;;;;;;;;18.75;18.75;;;;;;;;5024321;28;9192;-67
2022/05/16 04:47:26;;;;;;;;;21.00;15.00;;;;;;;;5021204;28;8801;-68
2022/05/16 04:49:52;;;;;;;;;12.20;12.00;;;;;;;;5037347;28;8757;-67
2022/05/16 04:52:21;;;;;;;;;14.80;14.00;;;;;;;;5038558;28;8796;-65
2022/05/16 04:54:48;;;;;;;;;14.50;13.75;;;;;;;;5037240;28;8765;-67
2022/05/16 04:57:16;;;;;;;;;19.25;14.00;;;;;;;;5030489;28;8777;-66
2022/05/16 04:59:42;;;;;;;;;19.00;14.00;;;;;;;;5037580;28;8798;-66
2022/05/16 05:02:09;;;;;;;;;17.20;16.00;;;;;;;;5037182;28;8781;-65
2022/05/16 05:04:36;;;;;;;;;18.60;14.20;;;;;;;;5004920;28;8852;-66
2022/05/16 05:07:03;;;;;;;;;17.60;15.60;;;;;;;;5021020;28;8757;-66
2022/05/16 05:14:31;;;;;;;;;18.20;14.60;;;;;;;;5037759;28;8734;-68
2022/05/16 05:15:05;;;;;;;;;11.40;9.80;;;;;;;;5018610;28;8799;-67
2022/05/16 05:17:31;;;;;;;;;16.80;14.80;;;;;;;;5018135;28;8755;-67
2022/05/16 05:19:58;;;;;;;;;11.00;11.00;;;;;;;;5017459;28;8775;-67
2022/05/16 05:22:25;;;;;;;;;14.60;12.80;;;;;;;;5015819;28;8760;-65
2022/05/16 05:24:52;;;;;;;;;14.20;12.60;;;;;;;;5021633;28;8788;-65
2022/05/16 05:27:19;;;;;;;;;14.40;13.60;;;;;;;;5036896;28;8792;-66
2022/05/16 05:29:48;;;;;;;;;13.00;11.60;;;;;;;;5020142;28;8753;-70
2022/05/16 05:32:16;;;;;;;;;15.20;12.60;;;;;;;;5019641;28;8823;-67
2022/05/16 05:34:42;;;;;;;;;12.00;12.00;;;;;;;;5036632;28;8850;-69
2022/05/16 05:37:09;;;;;;;;;13.60;10.00;;;;;;;;5003998;28;9512;-70
2022/05/16 05:39:39;;;;;;;;;15.00;12.60;;;;;;;;5019435;28;8858;-70
2022/05/16 05:42:06;;;;;;;;;13.80;11.80;;;;;;;;5019492;28;8765;-68
2022/05/16 05:44:33;;;;;;;;;16.50;14.25;;;;;;;;5037640;28;8796;-68
2022/05/16 05:47:01;;;;;;;;;14.25;13.75;;;;;;;;5019895;28;8737;-63
2022/05/16 05:49:27;;;;;;;;;15.80;11.60;;;;;;;;5037961;28;8824;-65
2022/05/16 05:51:55;;;;;;;;;16.20;13.00;;;;;;;;5038245;28;8834;-64
2022/05/16 05:54:22;;;;;;;;;12.40;11.40;;;;;;;;5036566;28;9019;-63
2022/05/16 05:56:50;;;;;;;;;13.40;11.00;;;;;;;;5037678;28;8858;-63
2022/05/16 05:59:18;;;;;;;;;12.00;10.00;;;;;;;;5036914;28;8777;-63
2022/05/16 06:01:45;;;;;;;;;11.20;10.00;;;;;;;;5019309;28;8819;-63
2022/05/16 06:04:11;;;;;;;;;11.20;9.60;;;;;;;;5019699;28;8793;-65
2022/05/16 06:06:40;;;;;;;;;13.80;12.60;;;;;;;;5017200;28;9462;-66
2022/05/16 06:09:07;;;;;;;;;9.20;8.40;;;;;;;;5034109;28;8797;-63
2022/05/16 06:11:34;;;;;;;;;13.20;10.80;;;;;;;;5034374;28;8785;-61
2022/05/16 06:14:00;;;;;;;;;13.20;11.00;;;;;;;;5036866;28;8785;-66
2022/05/16 06:16:27;;;;;;;;;12.80;11.60;;;;;;;;5035597;28;8754;-64
2022/05/16 06:18:54;;;;;;;;;14.75;12.00;;;;;;;;5020408;28;8801;-64
2022/05/16 06:21:23;;;;;;;;;13.40;12.40;;;;;;;;5037281;28;8772;-63
2022/05/16 06:23:51;;;;;;;;;13.80;9.60;;;;;;;;5019713;28;8870;-64
2022/05/16 06:26:21;;;;;;;;;7.60;7.60;;;;;;;;5019668;28;8777;-64
2022/05/16 06:28:48;;;;;;;;;10.00;10.00;;;;;;;;5037247;28;8788;-65
2022/05/16 06:31:15;;;;;;;;;16.25;12.75;;;;;;;;5019737;28;8746;-64
2022/05/16 06:33:46;;;;;;;;;13.20;10.40;;;;;;;;5019754;28;8772;-64
2022/05/16 06:36:13;;;;;;;;;14.20;12.60;;;;;;;;5019267;28;8805;-64
2022/05/16 06:38:40;;;;;;;;;13.80;11.80;;;;;;;;5036746;28;8800;-64
2022/05/16 06:41:07;;;;;;;;;6.60;5.40;;;;;;;;5036401;28;8793;-64
2022/05/16 06:43:34;;;;;;;;;12.00;11.00;;;;;;;;5034961;28;8746;-64
2022/05/16 06:46:02;;;;;;;;;17.25;14.25;;;;;;;;5036136;28;8785;-65
2022/05/16 06:48:29;;;;;;;;;12.40;10.00;;;;;;;;5036720;28;8757;-64
2022/05/16 06:50:56;;;;;;;;;11.00;9.00;;;;;;;;5018191;28;8785;-64
2022/05/16 06:53:24;;;;;;;;;14.50;12.75;;;;;;;;5022947;28;8773;-64
2022/05/16 06:55:51;;;;;;;;;12.80;12.80;;;;;;;;5033783;28;8785;-64
2022/05/16 06:58:18;;;;;;;;;13.60;13.20;;;;;;;;5033828;28;8780;-63
2022/05/16 07:00:45;;;;;;;;;14.20;10.80;;;;;;;;5033841;28;8793;-64
2022/05/16 07:03:12;;;;;;;;;14.40;10.40;;;;;;;;5033985;28;8774;-65
2022/05/16 07:05:39;;;;;;;;;13.00;9.60;;;;;;;;5033902;28;8793;-64
2022/05/16 07:08:06;;;;;;;;;11.00;9.40;;;;;;;;5033977;28;8915;-64
2022/05/16 07:10:32;;;;;;;;;11.40;9.80;;;;;;;;5015732;28;8760;-65
2022/05/16 07:12:59;;;;;;;;;10.60;9.60;;;;;;;;5034648;28;8770;-65
2022/05/16 07:15:26;;;;;;;;;11.80;11.80;;;;;;;;5033895;28;8843;-64
2022/05/16 07:17:53;;;;;;;;;15.20;13.60;;;;;;;;5016493;28;8784;-65
2022/05/16 07:20:20;;;;;;;;;17.40;13.60;;;;;;;;5033887;28;8800;-64
2022/05/16 07:22:48;;;;;;;;;15.25;13.25;;;;;;;;5033747;28;9026;-65
2022/05/16 07:25:16;;;;;;;;;12.60;11.20;;;;;;;;5016541;28;8762;-65
2022/05/16 07:28:02;;;;;;;;;14.40;12.40;;;;;;;;5033725;28;8846;-64
2022/05/16 07:30:30;;;;;;;;;21.20;19.20;;;;;;;;5033616;28;8777;-64
2022/05/16 07:32:56;;;;;;;;;41.25;33.25;;;;;;;;5035428;28;8746;-64
2022/05/16 07:35:28;;;;;;;;;23.25;17.75;;;;;;;;5036310;28;8845;-65
2022/05/16 07:37:55;;;;;;;;;29.25;25.75;;;;;;;;5036398;28;8765;-64
2022/05/16 07:40:22;;;;;;;;;14.20;12.20;;;;;;;;5019226;28;8745;-64
2022/05/16 07:42:49;;;;;;;;;14.20;14.00;;;;;;;;5018849;28;8734;-64
2022/05/16 07:45:16;;;;;;;;;11.80;10.40;;;;;;;;5036384;28;8856;-64
2022/05/16 07:47:43;;;;;;;;;48.75;40.25;;;;;;;;5035999;28;8792;-65
2022/05/16 07:50:10;;;;;;;;;36.00;31.25;;;;;;;;5027702;28;8777;-65
2022/05/16 07:52:37;;;;;;;;;13.20;11.80;;;;;;;;5036012;28;8793;-64
2022/05/16 07:55:04;;;;;;;;;13.80;12.00;;;;;;;;5036968;28;8761;-64
2022/05/16 07:57:30;;;;;;;;;15.00;12.80;;;;;;;;5018368;28;9437;-64
2022/05/16 07:59:57;;;;;;;;;12.20;11.20;;;;;;;;5036024;28;8784;-64
2022/05/16 08:02:24;;;;;;;;;11.60;10.20;;;;;;;;5035961;28;8792;-64
2022/05/16 08:04:51;;;;;;;;;11.80;11.00;;;;;;;;5018819;28;8800;-65
2022/05/16 08:07:18;;;;;;;;;9.40;8.40;;;;;;;;5035762;28;8748;-66
2022/05/16 08:12:33;;;;;;;;;14.20;14.00;;;;;;;;5035060;28;8762;-64
2022/05/16 08:15:00;;;;;;;;;14.40;12.80;;;;;;;;5018318;28;9382;-64
2022/05/16 08:17:28;;;;;;;;;14.80;12.80;;;;;;;;5035233;28;8741;-64
2022/05/16 08:19:58;;;;;;;;;15.50;13.25;;;;;;;;5035485;28;8785;-65
2022/05/16 08:22:29;;;;;;;;;11.25;9.75;;;;;;;;5032981;28;8784;-63
2022/05/16 08:24:55;;;;;;;;;12.80;11.60;;;;;;;;5036112;28;8746;-65
2022/05/16 08:27:22;;;;;;;;;14.60;11.40;;;;;;;;5034822;28;8757;-64
2022/05/16 08:29:49;;;;;;;;;10.20;9.00;;;;;;;;5018056;28;8823;-65
2022/05/16 08:32:16;;;;;;;;;10.60;10.60;;;;;;;;5018445;28;9412;-65
2022/05/16 08:34:43;;;;;;;;;9.40;8.00;;;;;;;;5018135;28;8753;-65
2022/05/16 08:40:04;;;;;;;;;15.00;12.20;;;;;;;;5040005;28;8750;-65
2022/05/16 08:42:40;;;;;;;;;12.00;11.00;;;;;;;;5039071;28;8750;-64
2022/05/16 08:45:31;;;;;;;;;9.25;8.75;;;;;;;;5022039;28;8760;-65
2022/05/16 08:48:13;;;;;;;;;13.25;8.75;;;;;;;;5029673;28;8888;-70
2022/05/16 08:50:44;;;;;;;;;12.25;10.75;;;;;;;;5039343;28;8801;-69
2022/05/16 08:53:14;;;;;;;;;9.75;9.50;;;;;;;;5021803;28;8769;-70
2022/05/16 08:55:42;;;;;;;;;11.50;10.50;;;;;;;;5021142;28;8762;-69
2022/05/16 08:58:29;;;;;;;;;10.50;9.50;;;;;;;;5039364;28;8863;-69
2022/05/16 09:00:58;;;;;;;;;14.00;12.00;;;;;;;;5021804;28;8765;-70
2022/05/16 09:03:26;;;;;;;;;12.50;10.00;;;;;;;;5021162;28;8777;-69
2022/05/16 09:06:01;;;;;;;;;11.75;11.75;;;;;;;;5021576;28;8857;-69
2022/05/16 09:08:47;;;;;;;;;10.50;10.50;;;;;;;;5038937;28;8855;-69
2022/05/16 09:11:16;;;;;;;;;10.75;7.00;;;;;;;;5005461;28;9332;-69
2022/05/16 09:13:42;;;;;;;;;12.50;9.25;;;;;;;;5021407;28;8772;-69
2022/05/16 09:16:10;;;;;;;;;8.20;8.20;;;;;;;;5039458;28;8802;-70
2022/05/16 09:18:43;;;;;;;;;8.75;8.75;;;;;;;;5020699;28;8943;-69
2022/05/16 09:21:16;;;;;;;;;9.75;7.00;;;;;;;;5038669;28;8770;-69
2022/05/16 09:23:48;;;;;;;;;15.25;10.25;;;;;;;;5020964;28;9476;-69
2022/05/16 09:26:33;;;;;;;;;10.50;10.00;;;;;;;;5021096;28;9077;-69
2022/05/16 09:29:18;;;;;;;;;9.00;8.60;;;;;;;;5038672;28;9507;-70
2022/05/16 09:31:45;;;;;;;;;7.60;7.20;;;;;;;;5020803;28;8801;-69
2022/05/16 09:34:12;;;;;;;;;13.80;9.40;;;;;;;;5021248;28;8762;-70
2022/05/16 09:36:45;;;;;;;;;12.00;8.75;;;;;;;;5003852;28;8840;-69
2022/05/16 09:39:17;;;;;;;;;12.80;9.40;;;;;;;;5038605;28;8899;-70
2022/05/16 09:41:45;;;;;;;;;10.75;10.50;;;;;;;;5020963;28;8851;-69
2022/05/16 09:44:26;;;;;;;;;15.25;12.75;;;;;;;;5021264;28;9484;-69
2022/05/16 09:47:12;;;;;;;;;11.50;11.00;;;;;;;;5020948;28;8773;-69
2022/05/16 09:49:39;;;;;;;;;18.50;15.25;;;;;;;;5021180;28;8777;-69
2022/05/16 09:52:06;;;;;;;;;21.25;14.00;;;;;;;;5021054;28;8908;-69
2022/05/16 09:54:35;;;;;;;;;15.50;14.00;;;;;;;;5038087;28;9434;-69
2022/05/16 09:57:05;;;;;;;;;13.00;12.75;;;;;;;;5001360;28;8794;-69
2022/05/16 09:59:35;;;;;;;;;16.25;15.25;;;;;;;;5017921;28;8871;-69
2022/05/16 10:02:10;;;;;;;;;12.75;11.25;;;;;;;;5018330;28;8771;-69
2022/05/16 10:04:40;;;;;;;;;17.00;13.50;;;;;;;;5000724;28;8776;-69
2022/05/16 10:07:07;;;;;;;;;16.00;15.25;;;;;;;;5018513;28;8800;-69
2022/05/16 10:09:36;;;;;;;;;15.50;14.25;;;;;;;;5017880;28;8795;-69
2022/05/16 10:12:03;;;;;;;;;20.60;15.60;;;;;;;;5019745;28;8875;-69
2022/05/16 10:14:30;;;;;;;;;18.00;16.25;;;;;;;;5020257;28;8918;-69
2022/05/16 10:16:57;;;;;;;;;15.40;13.00;;;;;;;;5037824;28;8772;-69
2022/05/16 10:19:26;;;;;;;;;13.20;13.20;;;;;;;;5020453;28;8769;-69
2022/05/16 10:22:03;;;;;;;;;15.20;15.20;;;;;;;;5038072;28;8842;-69
2022/05/16 10:24:31;;;;;;;;;14.80;12.40;;;;;;;;5020117;28;8997;-69
2022/05/16 10:27:00;;;;;;;;;14.40;13.60;;;;;;;;5003691;28;8781;-69
2022/05/16 10:29:28;;;;;;;;;15.20;13.60;;;;;;;;5019702;28;8793;-69
2022/05/16 10:35:04;;;;;;;;;13.80;12.20;;;;;;;;5037383;28;8741;-69
2022/05/16 10:37:31;;;;;;;;;18.60;13.20;;;;;;;;5037048;28;9470;-69
2022/05/16 10:40:03;;;;;;;;;13.00;11.80;;;;;;;;5020616;28;8770;-69
2022/05/16 10:42:38;;;;;;;;;16.40;16.40;;;;;;;;5037322;28;8789;-69
2022/05/16 10:45:15;;;;;;;;;16.80;15.40;;;;;;;;5020409;28;8816;-69
2022/05/16 10:48:06;;;;;;;;;13.60;12.20;;;;;;;;5037601;28;8855;-69
2022/05/16 10:50:50;;;;;;;;;15.00;12.80;;;;;;;;5029858;28;8854;-69
2022/05/16 10:53:22;;;;;;;;;30.25;24.50;;;;;;;;5019765;28;8791;-70
2022/05/16 10:55:48;;;;;;;;;22.75;16.50;;;;;;;;5020054;28;8875;-69
2022/05/16 10:58:34;;;;;;;;;23.75;22.00;;;;;;;;5037380;28;8741;-69
2022/05/16 11:01:05;;;;;;;;;21.25;18.25;;;;;;;;5019376;28;8817;-70
2022/05/16 11:03:38;;;;;;;;;19.00;16.50;;;;;;;;5019468;28;8797;-69
2022/05/16 11:06:26;;;;;;;;;13.80;13.80;;;;;;;;5037250;28;8854;-69
2022/05/16 11:09:03;;;;;;;;;8.40;5.60;;;;;;;;5019900;28;8788;-69
2022/05/16 11:11:49;;;;;;;;;16.80;15.20;;;;;;;;5019502;28;8843;-69
2022/05/16 11:14:19;;;;;;;;;5.80;4.60;;;;;;;;5037439;28;8769;-69
2022/05/16 11:16:46;;;;;;;;;13.25;8.75;;;;;;;;5036893;28;9431;-69
2022/05/16 11:19:16;;;;;;;;;16.00;14.75;;;;;;;;5003674;28;8801;-69
2022/05/16 11:21:48;;;;;;;;;16.40;15.60;;;;;;;;5036410;28;8765;-69
2022/05/16 11:24:26;;;;;;;;;17.60;14.40;;;;;;;;5019292;28;9437;-69
2022/05/16 11:26:58;;;;;;;;;19.50;14.50;;;;;;;;5015994;28;8798;-69
2022/05/16 11:29:31;;;;;;;;;20.00;15.20;;;;;;;;5016920;28;9088;-69
2022/05/16 11:32:04;;;;;;;;;14.40;14.00;;;;;;;;5016423;28;8770;-69
2022/05/16 11:34:50;;;;;;;;;20.75;19.00;;;;;;;;5016831;28;8814;-69
2022/05/16 11:37:26;;;;;;;;;18.75;16.50;;;;;;;;5032611;28;8791;-68
2022/05/16 11:39:53;;;;;;;;;16.50;15.50;;;;;;;;5017773;28;8743;-70
2022/05/16 11:42:43;;;;;;;;;20.50;18.00;;;;;;;;5016739;28;8763;-68
2022/05/16 11:45:13;;;;;;;;;23.75;17.75;;;;;;;;5039238;28;8847;-70
2022/05/16 11:47:44;;;;;;;;;21.25;18.25;;;;;;;;5056092;28;8964;-70
2022/05/16 11:50:26;;;;;;;;;21.25;18.50;;;;;;;;5056718;28;8869;-70
2022/05/16 11:53:11;;;;;;;;;22.50;19.75;;;;;;;;5038675;28;8750;-69
2022/05/16 12:01:28;;;;;;;;;32.50;28.75;;;;;;;;5030068;28;8751;-70
2022/05/16 12:04:05;;;;;;;;;30.25;29.25;;;;;;;;5037044;28;8749;-70
2022/05/16 12:06:39;;;;;;;;;33.75;30.00;;;;;;;;5036148;28;8816;-70
2022/05/16 12:09:20;;;;;;;;;35.25;29.50;;;;;;;;5015788;28;8817;-70
2022/05/16 12:11:49;;;;;;;;;33.75;28.00;;;;;;;;5019526;28;8833;-70
2022/05/16 12:14:28;;;;;;;;;31.00;28.75;;;;;;;;5020545;28;8848;-70
2022/05/16 12:16:56;;;;;;;;;33.75;29.25;;;;;;;;5019260;28;8767;-70
2022/05/16 12:19:26;;;;;;;;;31.25;26.75;;;;;;;;5025968;28;8915;-69
2022/05/16 12:22:01;;;;;;;;;30.50;23.00;;;;;;;;5019233;28;8747;-69
2022/05/16 12:24:30;;;;;;;;;24.75;24.75;;;;;;;;5020104;28;8790;-69
2022/05/16 12:26:59;;;;;;;;;39.50;31.50;;;;;;;;5018663;28;8779;-69
2022/05/16 12:29:31;;;;;;;;;35.25;29.50;;;;;;;;5030436;28;8790;-69
2022/05/16 12:31:59;;;;;;;;;25.75;24.50;;;;;;;;5020058;28;8776;-69
2022/05/16 12:34:40;;;;;;;;;36.25;31.00;;;;;;;;5034812;28;8751;-68
2022/05/16 12:37:09;;;;;;;;;35.75;32.50;;;;;;;;5041082;28;8781;-69
2022/05/16 12:39:39;;;;;;;;;30.75;30.25;;;;;;;;5039873;28;8884;-69
2022/05/16 12:42:11;;;;;;;;;41.00;35.00;;;;;;;;5013272;28;8806;-69
2022/05/16 12:44:42;;;;;;;;;41.75;33.75;;;;;;;;5042307;28;9463;-69
2022/05/16 12:47:27;;;;;;;;;38.50;31.50;;;;;;;;5060059;28;8789;-69
2022/05/16 12:50:12;;;;;;;;;38.75;33.25;;;;;;;;5060163;28;8919;-69
2022/05/16 12:52:40;;;;;;;;;47.50;37.25;;;;;;;;5059783;28;8770;-69
2022/05/16 12:55:16;;;;;;;;;47.25;38.50;;;;;;;;5055256;28;8799;-69
2022/05/16 12:57:53;;;;;;;;;43.50;35.75;;;;;;;;5019502;28;8792;-69
2022/05/16 13:00:32;;;;;;;;;44.00;36.75;;;;;;;;5031260;28;8868;-69
2022/05/16 13:03:11;;;;;;;;;45.75;36.25;;;;;;;;5000437;28;8766;-69
2022/05/16 13:05:46;;;;;;;;;49.00;39.50;;;;;;;;5009797;28;8829;-69
2022/05/16 13:08:20;;;;;;;;;50.75;38.25;;;;;;;;5010455;28;8785;-69
2022/05/16 13:10:52;;;;;;;;;42.25;34.00;;;;;;;;5021655;28;8764;-69
2022/05/16 13:13:38;;;;;;;;;46.75;36.75;;;;;;;;4979647;28;8779;-67
2022/05/16 13:16:18;;;;;;;;;44.75;36.00;;;;;;;;5000760;28;8782;-69
2022/05/16 13:18:46;;;;;;;;;45.50;36.00;;;;;;;;4980263;28;8788;-69
2022/05/16 13:21:16;;;;;;;;;37.75;32.25;;;;;;;;4995541;28;8791;-69
2022/05/16 13:23:43;;;;;;;;;38.75;32.25;;;;;;;;4979219;28;8775;-69
2022/05/16 13:31:44;;;;;;;;;43.00;34.50;;;;;;;;5039450;28;8729;-69
2022/05/16 13:34:14;;;;;;;;;37.50;32.25;;;;;;;;5039585;28;8755;-69
2022/05/16 13:36:46;;;;;;;;;34.50;30.25;;;;;;;;5039103;28;8784;-69
2022/05/16 13:39:14;;;;;;;;;32.25;29.00;;;;;;;;5039399;28;8794;-69
2022/05/16 13:41:41;;;;;;;;;40.25;31.75;;;;;;;;5010872;28;8777;-69
2022/05/16 13:44:11;;;;;;;;;33.25;28.00;;;;;;;;4999457;28;8883;-69
2022/05/16 13:46:37;;;;;;;;;30.25;25.75;;;;;;;;4999002;28;8797;-69
2022/05/16 13:49:05;;;;;;;;;38.50;31.50;;;;;;;;5031573;28;8781;-69
2022/05/16 13:51:33;;;;;;;;;31.25;27.00;;;;;;;;4999060;28;8796;-69
2022/05/16 13:54:04;;;;;;;;;29.00;26.50;;;;;;;;5030506;28;8762;-69
2022/05/16 13:56:37;;;;;;;;;35.00;30.00;;;;;;;;5008554;28;8792;-69
2022/05/16 13:59:04;;;;;;;;;31.50;25.00;;;;;;;;4985028;28;8758;-69
2022/05/16 14:01:31;;;;;;;;;36.00;29.75;;;;;;;;4998615;28;8803;-69
2022/05/16 14:04:01;;;;;;;;;32.25;29.25;;;;;;;;4999345;28;8734;-69
2022/05/16 14:06:37;;;;;;;;;35.50;28.25;;;;;;;;4998617;28;8863;-69
2022/05/16 14:09:06;;;;;;;;;31.50;29.50;;;;;;;;4998785;28;8839;-69
2022/05/16 14:11:33;;;;;;;;;33.00;28.25;;;;;;;;5002455;28;9689;-69
2022/05/16 14:14:00;;;;;;;;;33.75;32.00;;;;;;;;5018373;28;8751;-69
2022/05/16 14:16:34;;;;;;;;;32.50;28.75;;;;;;;;5017946;28;8825;-69
2022/05/16 14:19:09;;;;;;;;;37.00;32.50;;;;;;;;5017702;28;8771;-69
2022/05/16 14:21:47;;;;;;;;;36.75;30.75;;;;;;;;5018066;28;8767;-69
2022/05/16 14:24:15;;;;;;;;;40.00;34.50;;;;;;;;5000836;28;8801;-69
2022/05/16 14:26:41;;;;;;;;;39.25;31.75;;;;;;;;5016722;28;8805;-69
2022/05/16 14:29:20;;;;;;;;;36.00;32.50;;;;;;;;5030641;28;8774;-69
2022/05/16 14:32:00;;;;;;;;;35.50;30.00;;;;;;;;5034779;28;8763;-69
2022/05/16 14:34:31;;;;;;;;;44.00;31.75;;;;;;;;5018263;28;8868;-69
2022/05/16 14:37:05;;;;;;;;;39.25;33.50;;;;;;;;5038735;28;8793;-69
2022/05/16 14:39:32;;;;;;;;;38.25;34.00;;;;;;;;5020297;28;8798;-69
2022/05/16 14:42:07;;;;;;;;;35.75;31.00;;;;;;;;5000612;28;8755;-69
2022/05/16 14:44:37;;;;;;;;;40.00;34.50;;;;;;;;5037779;28;8761;-69
2022/05/16 14:47:39;;;;;;;;;37.75;32.00;;;;;;;;5014797;28;8763;-69
2022/05/16 14:50:07;;;;;;;;;35.00;32.75;;;;;;;;5008007;28;8751;-69
2022/05/16 14:52:34;;;;;;;;;28.50;27.00;;;;;;;;5016268;28;8803;-69
2022/05/16 14:55:11;;;;;;;;;30.25;26.25;;;;;;;;5029529;28;8855;-69
2022/05/16 14:57:39;;;;;;;;;29.00;26.75;;;;;;;;4999522;28;8804;-69
2022/05/16 15:00:07;;;;;;;;;39.00;32.75;;;;;;;;4997665;28;8808;-69
2022/05/16 15:05:18;;;;;;;;;30.00;27.50;;;;;;;;5017550;28;8772;-68
2022/05/16 15:07:45;;;;;;;;;33.25;28.25;;;;;;;;5017459;28;8804;-69
2022/05/16 15:10:12;;;;;;;;;24.00;24.00;;;;;;;;5021476;28;9406;-69
2022/05/16 15:12:42;;;;;;;;;37.50;31.50;;;;;;;;5035441;28;8873;-69
2022/05/16 15:15:09;;;;;;;;;37.50;32.75;;;;;;;;5012070;28;8851;-69
2022/05/16 15:17:36;;;;;;;;;31.25;28.75;;;;;;;;5035446;28;8765;-69
2022/05/16 15:20:06;;;;;;;;;31.25;30.50;;;;;;;;5036559;28;8805;-69
2022/05/16 15:22:33;;;;;;;;;41.75;33.50;;;;;;;;5036496;28;8758;-69